sensor_id;sensor_type;location;lat;lon;timestamp;P1;durP1;ratioP1;P2;durP2;ratioP2
58484;SDS011;44268;43.138;0.072;2024-01-10T00:02:00;4.60;;;4.30;;
58484;SDS011;44268;43.138;0.072;2024-01-10T00:04:26;8.48;;;6.50;;
58484;SDS011;44268;43.138;0.072;2024-01-10T00:06:53;15.00;;;9.95;;
58484;SDS011;44268;43.138;0.072;2024-01-10T00:09:19;11.57;;;10.80;;
58484;SDS011;44268;43.138;0.072;2024-01-10T00:11:45;13.13;;;12.20;;
58484;SDS011;44268;43.138;0.072;2024-01-10T00:14:11;9.43;;;8.90;;
58484;SDS011;44268;43.138;0.072;2024-01-10T00:16:37;1.80;;;1.80;;
58484;SDS011;44268;43.138;0.072;2024-01-10T00:19:03;3.20;;;3.20;;
58484;SDS011;44268;43.138;0.072;2024-01-10T00:21:29;2.38;;;2.38;;
58484;SDS011;44268;43.138;0.072;2024-01-10T00:23:55;1.55;;;1.55;;
58484;SDS011;44268;43.138;0.072;2024-01-10T00:26:21;1.83;;;1.83;;
58484;SDS011;44268;43.138;0.072;2024-01-10T00:28:47;1.73;;;1.73;;
58484;SDS011;44268;43.138;0.072;2024-01-10T00:31:13;1.40;;;1.40;;
58484;SDS011;44268;43.138;0.072;2024-01-10T00:33:40;2.45;;;2.45;;
58484;SDS011;44268;43.138;0.072;2024-01-10T00:36:06;1.35;;;1.35;;
58484;SDS011;44268;43.138;0.072;2024-01-10T00:38:32;2.55;;;2.55;;
58484;SDS011;44268;43.138;0.072;2024-01-10T00:40:59;2.65;;;2.55;;
58484;SDS011;44268;43.138;0.072;2024-01-10T00:43:25;1.92;;;1.92;;
58484;SDS011;44268;43.138;0.072;2024-01-10T00:45:51;2.58;;;2.47;;
58484;SDS011;44268;43.138;0.072;2024-01-10T00:48:17;1.30;;;1.30;;
58484;SDS011;44268;43.138;0.072;2024-01-10T00:50:43;1.30;;;1.30;;
58484;SDS011;44268;43.138;0.072;2024-01-10T00:53:09;2.80;;;2.80;;
58484;SDS011;44268;43.138;0.072;2024-01-10T00:55:35;1.33;;;1.33;;
58484;SDS011;44268;43.138;0.072;2024-01-10T00:58:01;1.42;;;1.42;;
58484;SDS011;44268;43.138;0.072;2024-01-10T01:00:27;4.07;;;3.97;;
58484;SDS011;44268;43.138;0.072;2024-01-10T01:02:53;1.83;;;1.83;;
58484;SDS011;44268;43.138;0.072;2024-01-10T01:05:19;1.63;;;1.63;;
58484;SDS011;44268;43.138;0.072;2024-01-10T01:07:45;2.50;;;2.30;;
58484;SDS011;44268;43.138;0.072;2024-01-10T01:10:11;2.10;;;2.10;;
58484;SDS011;44268;43.138;0.072;2024-01-10T01:12:37;1.80;;;1.63;;
58484;SDS011;44268;43.138;0.072;2024-01-10T01:15:04;2.58;;;2.58;;
58484;SDS011;44268;43.138;0.072;2024-01-10T01:17:30;2.28;;;2.22;;
58484;SDS011;44268;43.138;0.072;2024-01-10T01:19:56;1.73;;;1.73;;
58484;SDS011;44268;43.138;0.072;2024-01-10T01:22:23;1.90;;;1.90;;
58484;SDS011;44268;43.138;0.072;2024-01-10T01:24:49;3.45;;;3.40;;
58484;SDS011;44268;43.138;0.072;2024-01-10T01:27:15;1.30;;;1.30;;
58484;SDS011;44268;43.138;0.072;2024-01-10T01:29:41;1.73;;;1.73;;
58484;SDS011;44268;43.138;0.072;2024-01-10T01:32:07;2.10;;;2.10;;
58484;SDS011;44268;43.138;0.072;2024-01-10T01:34:33;1.23;;;1.23;;
58484;SDS011;44268;43.138;0.072;2024-01-10T01:36:59;1.90;;;1.90;;
58484;SDS011;44268;43.138;0.072;2024-01-10T01:39:26;1.20;;;1.20;;
58484;SDS011;44268;43.138;0.072;2024-01-10T01:41:52;1.40;;;1.40;;
58484;SDS011;44268;43.138;0.072;2024-01-10T01:44:18;1.40;;;1.40;;
58484;SDS011;44268;43.138;0.072;2024-01-10T01:46:45;1.20;;;1.20;;
58484;SDS011;44268;43.138;0.072;2024-01-10T01:49:11;1.13;;;1.13;;
58484;SDS011;44268;43.138;0.072;2024-01-10T01:51:37;1.27;;;1.27;;
58484;SDS011;44268;43.138;0.072;2024-01-10T01:54:06;1.30;;;1.30;;
58484;SDS011;44268;43.138;0.072;2024-01-10T01:56:36;2.00;;;2.00;;
58484;SDS011;44268;43.138;0.072;2024-01-10T01:59:05;1.80;;;1.80;;
58484;SDS011;44268;43.138;0.072;2024-01-10T02:01:31;5.63;;;1.67;;
58484;SDS011;44268;43.138;0.072;2024-01-10T02:03:58;1.65;;;1.65;;
58484;SDS011;44268;43.138;0.072;2024-01-10T02:06:24;1.30;;;1.30;;
58484;SDS011;44268;43.138;0.072;2024-01-10T02:08:50;1.33;;;1.33;;
58484;SDS011;44268;43.138;0.072;2024-01-10T02:11:17;1.58;;;1.58;;
58484;SDS011;44268;43.138;0.072;2024-01-10T02:13:43;1.10;;;1.10;;
58484;SDS011;44268;43.138;0.072;2024-01-10T02:16:09;1.30;;;1.30;;
58484;SDS011;44268;43.138;0.072;2024-01-10T02:18:35;1.55;;;1.45;;
58484;SDS011;44268;43.138;0.072;2024-01-10T02:21:01;1.10;;;1.10;;
58484;SDS011;44268;43.138;0.072;2024-01-10T02:23:28;1.48;;;1.48;;
58484;SDS011;44268;43.138;0.072;2024-01-10T02:25:54;1.10;;;1.10;;
58484;SDS011;44268;43.138;0.072;2024-01-10T02:28:20;1.20;;;1.20;;
58484;SDS011;44268;43.138;0.072;2024-01-10T02:30:48;1.20;;;1.20;;
58484;SDS011;44268;43.138;0.072;2024-01-10T02:33:14;1.10;;;1.10;;
58484;SDS011;44268;43.138;0.072;2024-01-10T02:35:40;1.40;;;1.40;;
58484;SDS011;44268;43.138;0.072;2024-01-10T02:38:06;1.10;;;1.10;;
58484;SDS011;44268;43.138;0.072;2024-01-10T02:40:32;1.40;;;1.40;;
58484;SDS011;44268;43.138;0.072;2024-01-10T02:42:58;1.10;;;1.10;;
58484;SDS011;44268;43.138;0.072;2024-01-10T02:45:24;1.10;;;1.10;;
58484;SDS011;44268;43.138;0.072;2024-01-10T02:47:50;1.10;;;1.10;;
58484;SDS011;44268;43.138;0.072;2024-01-10T02:50:16;1.20;;;1.20;;
58484;SDS011;44268;43.138;0.072;2024-01-10T02:52:42;1.10;;;1.10;;
58484;SDS011;44268;43.138;0.072;2024-01-10T02:55:08;1.17;;;1.17;;
58484;SDS011;44268;43.138;0.072;2024-01-10T02:57:34;1.10;;;1.10;;
58484;SDS011;44268;43.138;0.072;2024-01-10T03:00:00;1.10;;;1.10;;
58484;SDS011;44268;43.138;0.072;2024-01-10T03:04:55;1.10;;;1.10;;
58484;SDS011;44268;43.138;0.072;2024-01-10T03:07:21;1.50;;;1.50;;
58484;SDS011;44268;43.138;0.072;2024-01-10T03:09:49;1.10;;;1.10;;
58484;SDS011;44268;43.138;0.072;2024-01-10T03:12:15;1.30;;;1.30;;
58484;SDS011;44268;43.138;0.072;2024-01-10T03:14:41;1.00;;;1.00;;
58484;SDS011;44268;43.138;0.072;2024-01-10T03:17:07;1.10;;;1.10;;
58484;SDS011;44268;43.138;0.072;2024-01-10T03:19:33;1.27;;;1.27;;
58484;SDS011;44268;43.138;0.072;2024-01-10T03:24:28;1.10;;;1.10;;
58484;SDS011;44268;43.138;0.072;2024-01-10T03:26:54;1.20;;;1.20;;
58484;SDS011;44268;43.138;0.072;2024-01-10T03:29:20;2.15;;;2.13;;
58484;SDS011;44268;43.138;0.072;2024-01-10T03:31:46;2.25;;;2.15;;
58484;SDS011;44268;43.138;0.072;2024-01-10T03:34:12;1.10;;;1.10;;
58484;SDS011;44268;43.138;0.072;2024-01-10T03:36:39;1.10;;;1.10;;
58484;SDS011;44268;43.138;0.072;2024-01-10T03:39:05;4.10;;;3.85;;
58484;SDS011;44268;43.138;0.072;2024-01-10T03:41:31;3.25;;;3.08;;
58484;SDS011;44268;43.138;0.072;2024-01-10T03:43:57;5.50;;;3.42;;
58484;SDS011;44268;43.138;0.072;2024-01-10T03:46:23;2.42;;;1.58;;
58484;SDS011;44268;43.138;0.072;2024-01-10T03:48:49;6.60;;;3.70;;
58484;SDS011;44268;43.138;0.072;2024-01-10T03:51:17;4.95;;;4.72;;
58484;SDS011;44268;43.138;0.072;2024-01-10T03:53:43;4.05;;;3.58;;
58484;SDS011;44268;43.138;0.072;2024-01-10T03:56:09;2.13;;;2.03;;
58484;SDS011;44268;43.138;0.072;2024-01-10T03:58:36;2.20;;;2.20;;
58484;SDS011;44268;43.138;0.072;2024-01-10T04:01:08;3.63;;;3.53;;
58484;SDS011;44268;43.138;0.072;2024-01-10T04:03:34;3.63;;;3.05;;
58484;SDS011;44268;43.138;0.072;2024-01-10T04:06:00;2.15;;;2.05;;
58484;SDS011;44268;43.138;0.072;2024-01-10T04:08:26;1.42;;;1.42;;
58484;SDS011;44268;43.138;0.072;2024-01-10T04:10:52;1.92;;;1.92;;
58484;SDS011;44268;43.138;0.072;2024-01-10T04:13:19;1.17;;;1.17;;
58484;SDS011;44268;43.138;0.072;2024-01-10T04:15:45;1.10;;;1.10;;
58484;SDS011;44268;43.138;0.072;2024-01-10T04:18:11;1.10;;;1.10;;
58484;SDS011;44268;43.138;0.072;2024-01-10T04:20:37;1.33;;;1.33;;
58484;SDS011;44268;43.138;0.072;2024-01-10T04:23:03;1.25;;;1.25;;
58484;SDS011;44268;43.138;0.072;2024-01-10T04:25:29;1.20;;;1.20;;
58484;SDS011;44268;43.138;0.072;2024-01-10T04:27:55;1.10;;;1.10;;
58484;SDS011;44268;43.138;0.072;2024-01-10T04:30:22;1.13;;;1.13;;
58484;SDS011;44268;43.138;0.072;2024-01-10T04:32:48;1.58;;;1.58;;
58484;SDS011;44268;43.138;0.072;2024-01-10T04:35:14;1.00;;;1.00;;
58484;SDS011;44268;43.138;0.072;2024-01-10T04:37:40;1.83;;;1.77;;
58484;SDS011;44268;43.138;0.072;2024-01-10T04:40:06;1.30;;;1.30;;
58484;SDS011;44268;43.138;0.072;2024-01-10T04:42:32;3.40;;;3.28;;
58484;SDS011;44268;43.138;0.072;2024-01-10T04:44:58;2.15;;;2.15;;
58484;SDS011;44268;43.138;0.072;2024-01-10T04:47:24;1.35;;;1.35;;
58484;SDS011;44268;43.138;0.072;2024-01-10T04:49:50;1.95;;;1.95;;
58484;SDS011;44268;43.138;0.072;2024-01-10T04:52:17;1.00;;;1.00;;
58484;SDS011;44268;43.138;0.072;2024-01-10T04:54:43;1.30;;;1.30;;
58484;SDS011;44268;43.138;0.072;2024-01-10T04:57:09;1.85;;;1.85;;
58484;SDS011;44268;43.138;0.072;2024-01-10T04:59:35;1.67;;;1.67;;
58484;SDS011;44268;43.138;0.072;2024-01-10T05:02:01;2.75;;;2.67;;
58484;SDS011;44268;43.138;0.072;2024-01-10T05:04:27;1.85;;;1.75;;
58484;SDS011;44268;43.138;0.072;2024-01-10T05:06:53;2.05;;;1.95;;
58484;SDS011;44268;43.138;0.072;2024-01-10T05:09:19;1.10;;;1.10;;
58484;SDS011;44268;43.138;0.072;2024-01-10T05:11:45;1.15;;;1.15;;
58484;SDS011;44268;43.138;0.072;2024-01-10T05:14:13;1.30;;;1.30;;
58484;SDS011;44268;43.138;0.072;2024-01-10T05:16:39;1.00;;;1.00;;
58484;SDS011;44268;43.138;0.072;2024-01-10T05:19:05;0.98;;;0.98;;
58484;SDS011;44268;43.138;0.072;2024-01-10T05:21:33;1.00;;;1.00;;
58484;SDS011;44268;43.138;0.072;2024-01-10T05:23:59;1.00;;;1.00;;
58484;SDS011;44268;43.138;0.072;2024-01-10T05:26:25;1.60;;;1.60;;
58484;SDS011;44268;43.138;0.072;2024-01-10T05:28:51;1.00;;;1.00;;
58484;SDS011;44268;43.138;0.072;2024-01-10T05:31:17;1.15;;;1.15;;
58484;SDS011;44268;43.138;0.072;2024-01-10T05:33:43;1.25;;;1.25;;
58484;SDS011;44268;43.138;0.072;2024-01-10T05:36:09;1.33;;;1.33;;
58484;SDS011;44268;43.138;0.072;2024-01-10T05:38:38;1.00;;;1.00;;
58484;SDS011;44268;43.138;0.072;2024-01-10T05:41:07;1.00;;;1.00;;
58484;SDS011;44268;43.138;0.072;2024-01-10T05:43:33;1.10;;;1.10;;
58484;SDS011;44268;43.138;0.072;2024-01-10T05:45:59;1.00;;;1.00;;
58484;SDS011;44268;43.138;0.072;2024-01-10T05:48:25;1.08;;;1.08;;
58484;SDS011;44268;43.138;0.072;2024-01-10T05:50:52;1.88;;;1.77;;
58484;SDS011;44268;43.138;0.072;2024-01-10T05:53:18;1.52;;;1.52;;
58484;SDS011;44268;43.138;0.072;2024-01-10T05:55:44;1.35;;;1.35;;
58484;SDS011;44268;43.138;0.072;2024-01-10T05:58:10;1.00;;;1.00;;
58484;SDS011;44268;43.138;0.072;2024-01-10T06:00:37;1.10;;;1.10;;
58484;SDS011;44268;43.138;0.072;2024-01-10T06:03:03;1.10;;;1.10;;
58484;SDS011;44268;43.138;0.072;2024-01-10T06:05:29;1.00;;;1.00;;
58484;SDS011;44268;43.138;0.072;2024-01-10T06:07:58;0.90;;;0.90;;
58484;SDS011;44268;43.138;0.072;2024-01-10T06:10:24;1.17;;;1.17;;
58484;SDS011;44268;43.138;0.072;2024-01-10T06:12:50;1.15;;;1.15;;
58484;SDS011;44268;43.138;0.072;2024-01-10T06:15:16;1.10;;;1.10;;
58484;SDS011;44268;43.138;0.072;2024-01-10T06:17:42;1.00;;;1.00;;
58484;SDS011;44268;43.138;0.072;2024-01-10T06:20:08;1.13;;;1.13;;
58484;SDS011;44268;43.138;0.072;2024-01-10T06:22:35;1.00;;;1.00;;
58484;SDS011;44268;43.138;0.072;2024-01-10T06:25:01;1.00;;;1.00;;
58484;SDS011;44268;43.138;0.072;2024-01-10T06:27:27;1.00;;;1.00;;
58484;SDS011;44268;43.138;0.072;2024-01-10T06:29:53;1.25;;;1.25;;
58484;SDS011;44268;43.138;0.072;2024-01-10T06:32:19;1.17;;;1.17;;
58484;SDS011;44268;43.138;0.072;2024-01-10T06:34:45;1.10;;;1.10;;
58484;SDS011;44268;43.138;0.072;2024-01-10T06:37:11;1.30;;;1.30;;
58484;SDS011;44268;43.138;0.072;2024-01-10T06:39:37;2.30;;;2.15;;
58484;SDS011;44268;43.138;0.072;2024-01-10T06:42:03;1.00;;;1.00;;
58484;SDS011;44268;43.138;0.072;2024-01-10T06:44:31;1.42;;;1.42;;
58484;SDS011;44268;43.138;0.072;2024-01-10T06:46:57;1.30;;;1.30;;
58484;SDS011;44268;43.138;0.072;2024-01-10T06:49:23;2.00;;;2.00;;
58484;SDS011;44268;43.138;0.072;2024-01-10T06:51:49;1.75;;;1.73;;
58484;SDS011;44268;43.138;0.072;2024-01-10T06:54:15;1.10;;;1.10;;
58484;SDS011;44268;43.138;0.072;2024-01-10T06:56:43;1.30;;;1.30;;
58484;SDS011;44268;43.138;0.072;2024-01-10T06:59:09;1.33;;;1.33;;
58484;SDS011;44268;43.138;0.072;2024-01-10T07:01:35;1.48;;;1.48;;
58484;SDS011;44268;43.138;0.072;2024-01-10T07:04:01;1.75;;;1.75;;
58484;SDS011;44268;43.138;0.072;2024-01-10T07:06:27;4.38;;;4.07;;
58484;SDS011;44268;43.138;0.072;2024-01-10T07:08:55;5.37;;;5.00;;
58484;SDS011;44268;43.138;0.072;2024-01-10T07:11:21;1.17;;;1.17;;
58484;SDS011;44268;43.138;0.072;2024-01-10T07:13:47;1.33;;;1.33;;
58484;SDS011;44268;43.138;0.072;2024-01-10T07:16:13;1.10;;;1.10;;
58484;SDS011;44268;43.138;0.072;2024-01-10T07:18:42;1.10;;;1.10;;
58484;SDS011;44268;43.138;0.072;2024-01-10T07:21:08;0.90;;;0.90;;
58484;SDS011;44268;43.138;0.072;2024-01-10T07:23:35;1.08;;;1.08;;
58484;SDS011;44268;43.138;0.072;2024-01-10T07:26:05;1.42;;;1.42;;
58484;SDS011;44268;43.138;0.072;2024-01-10T07:28:31;1.00;;;1.00;;
58484;SDS011;44268;43.138;0.072;2024-01-10T07:30:57;2.20;;;2.20;;
58484;SDS011;44268;43.138;0.072;2024-01-10T07:33:24;1.10;;;1.10;;
58484;SDS011;44268;43.138;0.072;2024-01-10T07:35:50;1.05;;;1.05;;
58484;SDS011;44268;43.138;0.072;2024-01-10T07:38:18;0.90;;;0.90;;
58484;SDS011;44268;43.138;0.072;2024-01-10T07:40:44;0.90;;;0.90;;
58484;SDS011;44268;43.138;0.072;2024-01-10T07:43:10;1.00;;;1.00;;
58484;SDS011;44268;43.138;0.072;2024-01-10T07:45:36;1.73;;;1.73;;
58484;SDS011;44268;43.138;0.072;2024-01-10T07:48:03;2.15;;;1.50;;
58484;SDS011;44268;43.138;0.072;2024-01-10T07:50:29;1.67;;;1.67;;
58484;SDS011;44268;43.138;0.072;2024-01-10T07:52:55;1.05;;;1.05;;
58484;SDS011;44268;43.138;0.072;2024-01-10T07:55:21;0.90;;;0.90;;
58484;SDS011;44268;43.138;0.072;2024-01-10T07:57:47;1.75;;;1.00;;
58484;SDS011;44268;43.138;0.072;2024-01-10T08:00:14;0.90;;;0.90;;
58484;SDS011;44268;43.138;0.072;2024-01-10T08:02:40;1.17;;;1.17;;
58484;SDS011;44268;43.138;0.072;2024-01-10T08:05:07;1.05;;;1.05;;
58484;SDS011;44268;43.138;0.072;2024-01-10T08:07:34;8.50;;;8.10;;
58484;SDS011;44268;43.138;0.072;2024-01-10T08:12:28;14.10;;;12.80;;
58484;SDS011;44268;43.138;0.072;2024-01-10T08:14:54;11.45;;;10.80;;
58484;SDS011;44268;43.138;0.072;2024-01-10T08:17:20;4.15;;;3.70;;
58484;SDS011;44268;43.138;0.072;2024-01-10T08:19:46;1.52;;;1.52;;
58484;SDS011;44268;43.138;0.072;2024-01-10T08:22:12;1.50;;;1.50;;
58484;SDS011;44268;43.138;0.072;2024-01-10T08:24:38;1.30;;;1.30;;
58484;SDS011;44268;43.138;0.072;2024-01-10T08:27:04;3.53;;;1.80;;
58484;SDS011;44268;43.138;0.072;2024-01-10T08:29:30;1.17;;;1.17;;
58484;SDS011;44268;43.138;0.072;2024-01-10T08:31:56;2.05;;;2.05;;
58484;SDS011;44268;43.138;0.072;2024-01-10T08:34:23;1.48;;;1.48;;
58484;SDS011;44268;43.138;0.072;2024-01-10T08:36:49;1.00;;;1.00;;
58484;SDS011;44268;43.138;0.072;2024-01-10T08:39:16;1.50;;;1.50;;
58484;SDS011;44268;43.138;0.072;2024-01-10T08:41:42;1.00;;;1.00;;
58484;SDS011;44268;43.138;0.072;2024-01-10T08:44:09;1.20;;;1.20;;
58484;SDS011;44268;43.138;0.072;2024-01-10T08:46:35;1.30;;;1.30;;
58484;SDS011;44268;43.138;0.072;2024-01-10T08:49:01;1.13;;;1.13;;
58484;SDS011;44268;43.138;0.072;2024-01-10T08:51:27;0.80;;;0.80;;
58484;SDS011;44268;43.138;0.072;2024-01-10T08:53:54;0.90;;;0.90;;
58484;SDS011;44268;43.138;0.072;2024-01-10T08:56:21;0.70;;;0.70;;
58484;SDS011;44268;43.138;0.072;2024-01-10T08:58:47;1.00;;;1.00;;
58484;SDS011;44268;43.138;0.072;2024-01-10T09:01:13;0.90;;;0.90;;
58484;SDS011;44268;43.138;0.072;2024-01-10T09:03:39;1.45;;;1.45;;
58484;SDS011;44268;43.138;0.072;2024-01-10T09:06:05;0.90;;;0.90;;
58484;SDS011;44268;43.138;0.072;2024-01-10T09:08:33;1.15;;;1.15;;
58484;SDS011;44268;43.138;0.072;2024-01-10T09:10:59;0.90;;;0.90;;
58484;SDS011;44268;43.138;0.072;2024-01-10T09:13:25;0.90;;;0.90;;
58484;SDS011;44268;43.138;0.072;2024-01-10T09:15:51;0.80;;;0.80;;
58484;SDS011;44268;43.138;0.072;2024-01-10T09:18:17;0.90;;;0.90;;
58484;SDS011;44268;43.138;0.072;2024-01-10T09:20:44;0.88;;;0.88;;
58484;SDS011;44268;43.138;0.072;2024-01-10T09:23:10;0.90;;;0.90;;
58484;SDS011;44268;43.138;0.072;2024-01-10T09:25:36;0.90;;;0.90;;
58484;SDS011;44268;43.138;0.072;2024-01-10T09:28:04;0.77;;;0.77;;
58484;SDS011;44268;43.138;0.072;2024-01-10T09:30:30;0.90;;;0.90;;
58484;SDS011;44268;43.138;0.072;2024-01-10T09:32:56;1.00;;;1.00;;
58484;SDS011;44268;43.138;0.072;2024-01-10T09:35:22;2.15;;;2.00;;
58484;SDS011;44268;43.138;0.072;2024-01-10T09:37:48;0.90;;;0.90;;
58484;SDS011;44268;43.138;0.072;2024-01-10T09:40:15;3.67;;;3.45;;
58484;SDS011;44268;43.138;0.072;2024-01-10T09:42:43;1.60;;;1.50;;
58484;SDS011;44268;43.138;0.072;2024-01-10T09:45:09;2.47;;;2.38;;
58484;SDS011;44268;43.138;0.072;2024-01-10T09:47:39;0.90;;;0.90;;
58484;SDS011;44268;43.138;0.072;2024-01-10T09:50:07;1.10;;;1.10;;
58484;SDS011;44268;43.138;0.072;2024-01-10T09:52:39;1.42;;;1.33;;
58484;SDS011;44268;43.138;0.072;2024-01-10T09:55:07;0.85;;;0.85;;
58484;SDS011;44268;43.138;0.072;2024-01-10T09:57:34;1.25;;;1.25;;
58484;SDS011;44268;43.138;0.072;2024-01-10T10:00:01;1.00;;;1.00;;
58484;SDS011;44268;43.138;0.072;2024-01-10T10:02:29;1.17;;;1.17;;
58484;SDS011;44268;43.138;0.072;2024-01-10T10:05:04;1.38;;;1.38;;
58484;SDS011;44268;43.138;0.072;2024-01-10T10:07:43;1.80;;;1.80;;
58484;SDS011;44268;43.138;0.072;2024-01-10T10:10:09;1.48;;;1.48;;
58484;SDS011;44268;43.138;0.072;2024-01-10T10:12:43;0.90;;;0.90;;
58484;SDS011;44268;43.138;0.072;2024-01-10T10:15:10;1.35;;;1.30;;
58484;SDS011;44268;43.138;0.072;2024-01-10T10:17:37;1.00;;;1.00;;
58484;SDS011;44268;43.138;0.072;2024-01-10T10:20:10;1.42;;;1.42;;
58484;SDS011;44268;43.138;0.072;2024-01-10T10:22:36;1.58;;;1.50;;
58484;SDS011;44268;43.138;0.072;2024-01-10T10:25:02;2.70;;;2.70;;
58484;SDS011;44268;43.138;0.072;2024-01-10T10:27:29;3.53;;;3.33;;
58484;SDS011;44268;43.138;0.072;2024-01-10T10:29:55;3.72;;;3.50;;
58484;SDS011;44268;43.138;0.072;2024-01-10T10:32:21;3.40;;;1.52;;
58484;SDS011;44268;43.138;0.072;2024-01-10T10:34:47;1.33;;;1.23;;
58484;SDS011;44268;43.138;0.072;2024-01-10T10:37:13;1.00;;;1.00;;
58484;SDS011;44268;43.138;0.072;2024-01-10T10:39:39;1.50;;;1.50;;
58484;SDS011;44268;43.138;0.072;2024-01-10T10:42:06;1.67;;;1.67;;
58484;SDS011;44268;43.138;0.072;2024-01-10T10:44:33;1.10;;;1.10;;
58484;SDS011;44268;43.138;0.072;2024-01-10T10:47:04;1.98;;;1.02;;
58484;SDS011;44268;43.138;0.072;2024-01-10T10:49:31;2.85;;;1.65;;
58484;SDS011;44268;43.138;0.072;2024-01-10T10:51:58;1.52;;;1.52;;
58484;SDS011;44268;43.138;0.072;2024-01-10T10:54:27;2.88;;;2.67;;
58484;SDS011;44268;43.138;0.072;2024-01-10T10:56:55;1.10;;;1.10;;
58484;SDS011;44268;43.138;0.072;2024-01-10T10:59:23;2.55;;;2.40;;
58484;SDS011;44268;43.138;0.072;2024-01-10T11:01:51;1.63;;;1.63;;
58484;SDS011;44268;43.138;0.072;2024-01-10T11:04:17;0.90;;;0.90;;
58484;SDS011;44268;43.138;0.072;2024-01-10T11:06:44;1.15;;;1.15;;
58484;SDS011;44268;43.138;0.072;2024-01-10T11:09:10;0.90;;;0.90;;
58484;SDS011;44268;43.138;0.072;2024-01-10T11:24:15;0.85;;;0.85;;
58484;SDS011;44268;43.138;0.072;2024-01-10T11:26:41;0.80;;;0.80;;
58484;SDS011;44268;43.138;0.072;2024-01-10T11:29:07;0.90;;;0.90;;
58484;SDS011;44268;43.138;0.072;2024-01-10T11:31:34;1.40;;;1.40;;
58484;SDS011;44268;43.138;0.072;2024-01-10T11:34:01;1.83;;;1.83;;
58484;SDS011;44268;43.138;0.072;2024-01-10T11:36:28;2.15;;;2.15;;
58484;SDS011;44268;43.138;0.072;2024-01-10T11:38:58;1.40;;;1.40;;
58484;SDS011;44268;43.138;0.072;2024-01-10T11:41:33;0.90;;;0.90;;
58484;SDS011;44268;43.138;0.072;2024-01-10T11:46:49;1.00;;;1.00;;
58484;SDS011;44268;43.138;0.072;2024-01-10T11:49:16;0.93;;;0.93;;
58484;SDS011;44268;43.138;0.072;2024-01-10T11:51:44;1.20;;;1.20;;
58484;SDS011;44268;43.138;0.072;2024-01-10T11:54:10;0.70;;;0.70;;
58484;SDS011;44268;43.138;0.072;2024-01-10T11:56:40;1.13;;;1.13;;
58484;SDS011;44268;43.138;0.072;2024-01-10T11:59:07;1.50;;;1.50;;
58484;SDS011;44268;43.138;0.072;2024-01-10T12:01:34;5.18;;;1.70;;
58484;SDS011;44268;43.138;0.072;2024-01-10T12:04:02;1.92;;;1.10;;
58484;SDS011;44268;43.138;0.072;2024-01-10T12:06:28;0.80;;;0.80;;
58484;SDS011;44268;43.138;0.072;2024-01-10T12:08:55;1.20;;;1.20;;
58484;SDS011;44268;43.138;0.072;2024-01-10T12:11:21;2.40;;;2.25;;
58484;SDS011;44268;43.138;0.072;2024-01-10T12:13:47;1.00;;;1.00;;
58484;SDS011;44268;43.138;0.072;2024-01-10T12:16:13;2.17;;;2.17;;
58484;SDS011;44268;43.138;0.072;2024-01-10T12:18:40;0.80;;;0.80;;
58484;SDS011;44268;43.138;0.072;2024-01-10T12:21:06;1.50;;;1.50;;
58484;SDS011;44268;43.138;0.072;2024-01-10T12:23:34;1.60;;;1.60;;
58484;SDS011;44268;43.138;0.072;2024-01-10T12:26:03;1.77;;;1.65;;
58484;SDS011;44268;43.138;0.072;2024-01-10T12:28:33;1.10;;;1.10;;
58484;SDS011;44268;43.138;0.072;2024-01-10T12:30:59;0.93;;;0.93;;
58484;SDS011;44268;43.138;0.072;2024-01-10T12:33:25;3.63;;;2.08;;
58484;SDS011;44268;43.138;0.072;2024-01-10T12:36:04;2.45;;;2.30;;
58484;SDS011;44268;43.138;0.072;2024-01-10T12:38:31;1.05;;;1.05;;
58484;SDS011;44268;43.138;0.072;2024-01-10T12:40:58;1.50;;;1.42;;
58484;SDS011;44268;43.138;0.072;2024-01-10T12:43:25;1.60;;;1.60;;
58484;SDS011;44268;43.138;0.072;2024-01-10T12:46:07;1.05;;;1.05;;
58484;SDS011;44268;43.138;0.072;2024-01-10T12:48:35;0.95;;;0.95;;
58484;SDS011;44268;43.138;0.072;2024-01-10T12:51:03;1.88;;;1.65;;
58484;SDS011;44268;43.138;0.072;2024-01-10T12:53:36;1.25;;;1.25;;
58484;SDS011;44268;43.138;0.072;2024-01-10T12:56:03;0.85;;;0.85;;
58484;SDS011;44268;43.138;0.072;2024-01-10T12:58:30;1.20;;;1.20;;
58484;SDS011;44268;43.138;0.072;2024-01-10T13:00:56;1.38;;;1.27;;
58484;SDS011;44268;43.138;0.072;2024-01-10T13:03:23;1.00;;;1.00;;
58484;SDS011;44268;43.138;0.072;2024-01-10T13:05:49;1.27;;;1.27;;
58484;SDS011;44268;43.138;0.072;2024-01-10T13:08:16;2.03;;;2.03;;
58484;SDS011;44268;43.138;0.072;2024-01-10T13:10:42;1.25;;;1.25;;
58484;SDS011;44268;43.138;0.072;2024-01-10T13:13:08;1.25;;;1.15;;
58484;SDS011;44268;43.138;0.072;2024-01-10T13:15:34;0.90;;;0.90;;
58484;SDS011;44268;43.138;0.072;2024-01-10T13:18:00;1.52;;;1.48;;
58484;SDS011;44268;43.138;0.072;2024-01-10T13:20:26;2.53;;;2.38;;
58484;SDS011;44268;43.138;0.072;2024-01-10T13:22:53;1.10;;;1.08;;
58484;SDS011;44268;43.138;0.072;2024-01-10T13:25:19;1.58;;;1.58;;
58484;SDS011;44268;43.138;0.072;2024-01-10T13:27:51;1.13;;;1.08;;
58484;SDS011;44268;43.138;0.072;2024-01-10T13:30:18;0.75;;;0.75;;
58484;SDS011;44268;43.138;0.072;2024-01-10T13:32:44;0.80;;;0.80;;
58484;SDS011;44268;43.138;0.072;2024-01-10T13:35:12;0.93;;;0.93;;
58484;SDS011;44268;43.138;0.072;2024-01-10T13:37:38;1.58;;;1.52;;
58484;SDS011;44268;43.138;0.072;2024-01-10T13:40:05;1.20;;;1.20;;
58484;SDS011;44268;43.138;0.072;2024-01-10T13:42:32;1.02;;;1.02;;
58484;SDS011;44268;43.138;0.072;2024-01-10T13:44:58;1.00;;;1.00;;
58484;SDS011;44268;43.138;0.072;2024-01-10T13:47:24;0.80;;;0.80;;
58484;SDS011;44268;43.138;0.072;2024-01-10T13:49:50;1.05;;;1.05;;
58484;SDS011;44268;43.138;0.072;2024-01-10T13:52:16;0.90;;;0.90;;
58484;SDS011;44268;43.138;0.072;2024-01-10T13:54:42;0.80;;;0.80;;
58484;SDS011;44268;43.138;0.072;2024-01-10T13:57:08;1.30;;;1.30;;
58484;SDS011;44268;43.138;0.072;2024-01-10T13:59:34;2.15;;;2.15;;
58484;SDS011;44268;43.138;0.072;2024-01-10T14:02:00;1.45;;;1.45;;
58484;SDS011;44268;43.138;0.072;2024-01-10T14:04:26;1.30;;;1.30;;
58484;SDS011;44268;43.138;0.072;2024-01-10T14:06:52;1.50;;;1.50;;
58484;SDS011;44268;43.138;0.072;2024-01-10T14:09:19;2.63;;;1.98;;
58484;SDS011;44268;43.138;0.072;2024-01-10T14:11:45;1.58;;;1.58;;
58484;SDS011;44268;43.138;0.072;2024-01-10T14:14:13;1.15;;;1.15;;
58484;SDS011;44268;43.138;0.072;2024-01-10T14:16:39;1.10;;;1.10;;
58484;SDS011;44268;43.138;0.072;2024-01-10T14:19:06;3.10;;;2.95;;
58484;SDS011;44268;43.138;0.072;2024-01-10T14:21:32;1.67;;;1.67;;
58484;SDS011;44268;43.138;0.072;2024-01-10T14:23:58;2.88;;;2.78;;
58484;SDS011;44268;43.138;0.072;2024-01-10T14:26:24;1.80;;;1.80;;
58484;SDS011;44268;43.138;0.072;2024-01-10T14:28:51;1.60;;;1.55;;
58484;SDS011;44268;43.138;0.072;2024-01-10T14:31:20;0.80;;;0.80;;
58484;SDS011;44268;43.138;0.072;2024-01-10T14:33:46;2.45;;;2.45;;
58484;SDS011;44268;43.138;0.072;2024-01-10T14:36:12;2.38;;;2.28;;
58484;SDS011;44268;43.138;0.072;2024-01-10T14:38:39;3.38;;;1.50;;
58484;SDS011;44268;43.138;0.072;2024-01-10T14:41:06;1.00;;;1.00;;
58484;SDS011;44268;43.138;0.072;2024-01-10T14:43:32;1.10;;;1.10;;
58484;SDS011;44268;43.138;0.072;2024-01-10T14:45:58;1.58;;;1.58;;
58484;SDS011;44268;43.138;0.072;2024-01-10T14:48:24;1.20;;;1.20;;
58484;SDS011;44268;43.138;0.072;2024-01-10T14:50:50;3.03;;;1.75;;
58484;SDS011;44268;43.138;0.072;2024-01-10T14:53:17;1.08;;;1.08;;
58484;SDS011;44268;43.138;0.072;2024-01-10T14:55:43;1.27;;;1.27;;
58484;SDS011;44268;43.138;0.072;2024-01-10T14:58:09;1.17;;;1.17;;
58484;SDS011;44268;43.138;0.072;2024-01-10T15:00:35;1.30;;;1.30;;
58484;SDS011;44268;43.138;0.072;2024-01-10T15:03:01;1.38;;;1.38;;
58484;SDS011;44268;43.138;0.072;2024-01-10T15:05:29;1.45;;;1.45;;
58484;SDS011;44268;43.138;0.072;2024-01-10T15:07:55;1.38;;;1.38;;